Bonner, Texas
Current Conditions -  °F | °C
As of 5:19 AM on Friday 28 Nov 2014 (Local Time) from KMFE Reporting Station
Haze Haze  
Wind Chill: 52°   Ceiling: 100
Heat Index: 52°   Visibility: 0.75mi
Dew Point: 51°   Wind: 3mph
Humidity: 97%   Direction: 140°SE
Pressure: 30.31"   Gusts: NA
Location:  26.2031°N, 98.2299°W
Report Text: KMFE 281119Z AUTO 14003KT 3/4SM BR VV001 11/11 A3031 RMK AO2 T01110106
Loading
Personal Weather Stations






























Interactive Weather Map New forecast layout! Learn more

10-Day Weather Forecast

Advertisements
Track Severe Weather on mobile